Pyron, Texas
Current Conditions -  °F | °C
As of 2:35 AM on Friday 21 Nov 2014 (Local Time) from KSWW Reporting Station
Clear Clear  
Wind Chill: 11°   Ceiling: Unl
Heat Index: 11°   Visibility: 10mi
Dew Point: 10°   Wind: 10mph
Humidity: 95%   Direction: 180°S
Pressure: 30.02"   Gusts: NA
Location:  32.3875°N, 100.536°W
Report Text: KSWW 210835Z AUTO 18009KT 10SM CLR 11/10 A3002 RMK AO2 T01080100
Loading
Personal Weather Stations






























Interactive Weather Map New forecast layout! Learn more

10-Day Weather Forecast

Advertisements
Track Severe Weather on mobile